createdAt,value
2022-12-06T00:01:28.782Z,4.90
2022-12-06T00:04:00.755Z,4.00
2022-12-06T00:06:31.393Z,4.40
2022-12-06T00:09:00.202Z,4.20
2022-12-06T00:11:33.298Z,5.30
2022-12-06T00:14:07.139Z,4.60
2022-12-06T00:16:35.558Z,4.90
2022-12-06T00:19:04.340Z,4.70
2022-12-06T00:21:37.431Z,5.10
2022-12-06T00:24:07.616Z,4.80
2022-12-06T00:26:40.400Z,4.60
2022-12-06T00:29:11.112Z,5.80
2022-12-06T00:31:38.823Z,5.20
2022-12-06T00:34:06.454Z,5.20
2022-12-06T00:36:37.855Z,5.10
2022-12-06T00:39:09.192Z,4.60
2022-12-06T00:41:36.945Z,4.40
2022-12-06T00:44:05.888Z,4.10
2022-12-06T00:46:34.785Z,4.70
2022-12-06T00:49:04.683Z,5.40
2022-12-06T00:51:34.791Z,4.90
2022-12-06T00:54:03.030Z,5.50
2022-12-06T00:56:31.851Z,4.90
2022-12-06T00:58:59.667Z,4.90
2022-12-06T01:01:30.497Z,2.90
2022-12-06T01:04:01.119Z,5.50
2022-12-06T01:06:32.246Z,4.80
2022-12-06T01:09:06.621Z,5.70
2022-12-06T01:11:34.962Z,5.00
2022-12-06T01:14:03.121Z,4.60
2022-12-06T01:16:31.884Z,4.90
2022-12-06T01:19:02.349Z,4.70
2022-12-06T01:21:30.111Z,5.60
2022-12-06T01:23:57.790Z,5.60
2022-12-06T01:26:29.854Z,5.20
2022-12-06T01:28:59.166Z,5.00
2022-12-06T01:31:35.515Z,5.00
2022-12-06T01:34:09.559Z,4.80
2022-12-06T01:39:07.781Z,5.50
2022-12-06T01:41:37.012Z,5.70
2022-12-06T01:44:05.556Z,5.70
2022-12-06T01:46:41.336Z,5.40
2022-12-06T01:49:20.759Z,4.60
2022-12-06T01:51:58.795Z,5.30
2022-12-06T01:54:26.839Z,5.80
2022-12-06T01:56:55.437Z,5.50
2022-12-06T01:59:23.574Z,5.90
2022-12-06T02:01:51.418Z,5.10
2022-12-06T02:04:19.268Z,5.10
2022-12-06T02:06:47.499Z,5.20
2022-12-06T02:09:16.189Z,5.70
2022-12-06T02:11:43.808Z,5.90
2022-12-06T02:14:15.773Z,5.40
2022-12-06T02:17:03.849Z,5.60
2022-12-06T02:19:37.129Z,5.60
2022-12-06T02:22:23.001Z,5.20
2022-12-06T02:25:17.366Z,5.50
2022-12-06T02:28:34.323Z,4.60
2022-12-06T02:31:07.723Z,5.20
2022-12-06T02:33:42.514Z,5.80
2022-12-06T02:36:23.153Z,5.00
2022-12-06T02:38:59.363Z,5.60
2022-12-06T02:42:01.210Z,6.30
2022-12-06T02:44:54.318Z,4.60
2022-12-06T02:47:27.068Z,5.30
2022-12-06T02:49:57.265Z,5.40
2022-12-06T02:54:57.450Z,4.60
2022-12-06T02:57:39.737Z,6.20
2022-12-06T03:00:35.271Z,5.80
2022-12-06T03:03:59.242Z,5.20
2022-12-06T03:06:46.634Z,4.90
2022-12-06T03:09:22.650Z,4.60
2022-12-06T03:12:34.941Z,5.40
2022-12-06T03:15:35.973Z,6.30
2022-12-06T03:18:48.098Z,6.10
2022-12-06T03:21:39.052Z,5.50
2022-12-06T03:24:10.424Z,5.70
2022-12-06T03:29:09.365Z,4.80
2022-12-06T03:31:39.399Z,6.00
2022-12-06T03:34:17.238Z,5.70
2022-12-06T03:36:46.670Z,5.60
2022-12-06T03:39:22.073Z,5.50
2022-12-06T03:41:55.365Z,5.70
2022-12-06T03:44:23.875Z,5.40
2022-12-06T03:46:58.900Z,6.00
2022-12-06T03:49:35.417Z,6.00
2022-12-06T03:52:03.756Z,5.90
2022-12-06T03:54:31.455Z,6.70
2022-12-06T03:56:59.066Z,5.90
2022-12-06T03:59:26.979Z,5.80
2022-12-06T04:01:54.868Z,5.50
2022-12-06T04:04:24.289Z,5.70
2022-12-06T04:06:53.842Z,5.40
2022-12-06T04:09:40.280Z,5.90
2022-12-06T04:12:28.043Z,5.80
2022-12-06T04:14:55.902Z,5.40
2022-12-06T04:17:42.392Z,5.90
2022-12-06T04:20:10.497Z,5.30
2022-12-06T04:22:56.828Z,5.60
2022-12-06T04:25:25.142Z,6.30
2022-12-06T04:28:11.667Z,5.90
2022-12-06T04:30:58.207Z,5.70
2022-12-06T04:33:44.791Z,4.70
2022-12-06T04:36:31.502Z,5.40
2022-12-06T04:38:59.881Z,5.40
2022-12-06T04:41:46.966Z,5.30
2022-12-06T04:44:14.767Z,4.50
2022-12-06T04:46:42.787Z,5.90
2022-12-06T04:49:10.552Z,5.70
2022-12-06T04:51:39.457Z,5.30
2022-12-06T04:54:07.230Z,5.40
2022-12-06T04:56:34.961Z,5.00
2022-12-06T04:59:03.689Z,5.60
2022-12-06T05:01:31.788Z,5.50
2022-12-06T05:03:59.712Z,6.70
2022-12-06T05:06:28.766Z,6.60
2022-12-06T05:08:58.739Z,6.10
2022-12-06T05:11:38.576Z,5.10
2022-12-06T05:14:28.139Z,5.40
2022-12-06T05:17:28.685Z,6.30
2022-12-06T05:21:17.158Z,5.30
2022-12-06T05:23:51.330Z,5.40
2022-12-06T05:26:39.634Z,4.50
2022-12-06T05:29:08.061Z,4.70
2022-12-06T05:31:36.090Z,5.00
2022-12-06T05:34:17.870Z,5.00
2022-12-06T05:36:58.876Z,5.90
2022-12-06T05:39:26.763Z,5.80
2022-12-06T05:41:54.824Z,5.00
2022-12-06T05:44:23.109Z,5.80
2022-12-06T05:46:54.287Z,5.20
2022-12-06T05:49:21.969Z,5.30
2022-12-06T05:51:51.121Z,5.60
2022-12-06T05:55:14.396Z,5.60
2022-12-06T05:58:09.431Z,4.00
2022-12-06T06:02:35.252Z,4.80
2022-12-06T06:05:05.877Z,3.80
2022-12-06T06:10:37.856Z,4.40
2022-12-06T06:13:12.268Z,5.00
2022-12-06T06:15:57.042Z,4.90
2022-12-06T06:18:26.513Z,4.50
2022-12-06T06:21:29.737Z,4.90
2022-12-06T06:24:08.832Z,5.20
2022-12-06T06:26:38.966Z,5.30
2022-12-06T06:29:12.411Z,5.00
2022-12-06T06:35:44.637Z,4.50
2022-12-06T06:38:23.467Z,4.00
2022-12-06T06:41:31.054Z,4.80
2022-12-06T06:45:09.442Z,4.80
2022-12-06T06:48:10.218Z,4.80
2022-12-06T06:51:31.946Z,5.30
2022-12-06T07:01:46.594Z,4.60
2022-12-06T07:07:41.005Z,5.20
2022-12-06T07:11:00.703Z,4.50
2022-12-06T07:14:27.435Z,6.30
2022-12-06T07:22:11.649Z,5.10
2022-12-06T14:37:27.409Z,6.00
2022-12-06T14:40:43.851Z,6.50
2022-12-06T14:43:26.657Z,6.70
2022-12-06T14:46:29.984Z,6.10
2022-12-06T14:49:41.572Z,7.00
2022-12-06T14:53:11.106Z,6.80
2022-12-06T14:56:34.014Z,6.40
2022-12-06T14:59:13.841Z,7.50
2022-12-06T15:05:57.647Z,6.90
2022-12-06T15:09:24.645Z,7.10
2022-12-06T15:13:24.556Z,7.40
2022-12-06T15:16:30.124Z,6.70
2022-12-06T15:19:19.299Z,6.20
2022-12-06T15:22:27.455Z,6.20
2022-12-06T15:25:23.173Z,8.00
2022-12-06T15:28:35.586Z,7.00
2022-12-06T15:31:47.511Z,7.00
2022-12-06T15:34:34.538Z,6.80
2022-12-06T15:37:37.440Z,5.90
2022-12-06T15:40:27.218Z,6.10
2022-12-06T15:43:35.680Z,6.30
2022-12-06T15:46:35.278Z,5.00
2022-12-06T15:49:29.620Z,5.80
2022-12-06T15:52:25.111Z,6.60
2022-12-06T15:54:59.381Z,6.10
2022-12-06T15:57:30.917Z,6.20
2022-12-06T16:00:04.523Z,7.20
2022-12-06T16:03:02.092Z,8.20
2022-12-06T16:05:51.626Z,7.00
2022-12-06T16:08:40.943Z,7.60
2022-12-06T16:11:58.098Z,6.90
2022-12-06T16:18:21.503Z,7.50
2022-12-06T16:21:00.522Z,7.20
2022-12-06T16:24:15.050Z,8.40
2022-12-06T16:26:50.210Z,6.80
2022-12-06T16:29:28.369Z,6.30
2022-12-06T16:32:13.265Z,7.20
2022-12-06T16:35:06.492Z,7.70
2022-12-06T16:38:42.004Z,7.60
2022-12-06T17:15:40.217Z,6.10
2022-12-06T17:18:16.271Z,6.80
2022-12-06T17:20:51.784Z,6.20
2022-12-06T17:23:31.978Z,7.10
2022-12-06T17:26:48.773Z,8.20
2022-12-06T17:29:28.131Z,6.50
2022-12-06T17:32:00.788Z,8.50
2022-12-06T17:34:34.737Z,8.60
2022-12-06T17:37:06.864Z,8.90
2022-12-06T17:40:02.709Z,7.80
2022-12-06T17:43:05.743Z,7.50
2022-12-06T17:45:56.088Z,15.30
2022-12-06T17:48:33.538Z,7.10
2022-12-06T17:51:45.225Z,7.30
2022-12-06T17:54:50.375Z,7.20
2022-12-06T18:00:46.084Z,7.90
2022-12-06T18:03:24.751Z,7.00
2022-12-06T18:06:07.498Z,7.10
2022-12-06T18:08:48.403Z,6.50
2022-12-06T18:11:33.010Z,6.40
2022-12-06T18:14:03.997Z,6.00
2022-12-06T18:16:41.411Z,5.40
2022-12-06T18:19:14.715Z,6.60
2022-12-06T18:21:46.169Z,6.40
2022-12-06T18:24:29.198Z,6.30
2022-12-06T18:27:01.929Z,5.70
2022-12-06T18:29:38.082Z,6.00
2022-12-06T18:32:07.407Z,6.20
2022-12-06T18:34:36.772Z,6.00
2022-12-06T18:37:09.312Z,6.10
2022-12-06T18:39:41.953Z,5.10
2022-12-06T18:42:19.498Z,6.00
2022-12-06T18:44:53.593Z,5.20
2022-12-06T18:47:31.685Z,5.00
2022-12-06T18:50:00.269Z,5.50
2022-12-06T18:52:29.481Z,5.40
2022-12-06T18:55:01.304Z,5.00
2022-12-06T18:57:39.198Z,5.50
2022-12-06T19:00:13.161Z,5.10
2022-12-06T19:02:41.038Z,4.90
2022-12-06T19:05:46.117Z,5.50
2022-12-06T19:08:15.750Z,4.70
2022-12-06T19:10:48.927Z,4.20
2022-12-06T19:13:23.591Z,5.30
2022-12-06T19:16:09.110Z,5.00
2022-12-06T19:18:39.096Z,5.20
2022-12-06T19:21:33.179Z,5.60
2022-12-06T19:24:01.906Z,4.50
2022-12-06T19:26:32.437Z,4.30
2022-12-06T19:29:03.267Z,4.80
2022-12-06T19:31:32.115Z,4.40
2022-12-06T19:34:01.939Z,4.80
2022-12-06T19:36:35.952Z,5.00
2022-12-06T19:39:06.368Z,4.50
2022-12-06T19:42:00.018Z,5.70
2022-12-06T19:44:29.375Z,4.80
2022-12-06T19:47:07.477Z,4.70
2022-12-06T19:49:35.758Z,5.20
2022-12-06T19:52:06.861Z,4.70
2022-12-06T19:54:38.073Z,4.50
2022-12-06T19:57:06.073Z,4.80
2022-12-06T19:59:47.338Z,4.40
2022-12-06T20:02:15.135Z,4.20
2022-12-06T20:04:49.731Z,3.90
2022-12-06T20:07:32.910Z,4.00
2022-12-06T20:10:02.530Z,3.80
2022-12-06T20:12:30.545Z,4.40
2022-12-06T20:14:58.380Z,4.30
2022-12-06T20:17:25.979Z,4.40
2022-12-06T20:19:53.580Z,3.80
2022-12-06T20:22:22.347Z,3.90
2022-12-06T20:24:50.066Z,4.20
2022-12-06T20:27:17.677Z,4.20
2022-12-06T20:29:45.767Z,3.30
2022-12-06T20:32:18.057Z,3.90
2022-12-06T20:34:50.859Z,3.90
2022-12-06T20:37:23.339Z,3.80
2022-12-06T20:39:51.329Z,3.90
2022-12-06T20:42:19.923Z,3.20
2022-12-06T20:44:47.449Z,3.90
2022-12-06T20:47:15.870Z,3.80
2022-12-06T20:49:44.045Z,3.50
2022-12-06T20:52:11.833Z,3.40
2022-12-06T20:54:43.543Z,3.30
2022-12-06T20:57:11.208Z,3.40
2022-12-06T20:59:39.520Z,3.20
2022-12-06T21:02:14.351Z,3.00
2022-12-06T21:04:43.329Z,4.20
2022-12-06T21:07:12.591Z,3.60
2022-12-06T21:09:43.265Z,3.60
2022-12-06T21:12:11.091Z,3.30
2022-12-06T21:14:38.640Z,3.60
2022-12-06T21:17:06.104Z,3.50
2022-12-06T21:19:37.293Z,3.50
2022-12-06T21:22:07.880Z,2.60
2022-12-06T21:24:35.519Z,3.50
2022-12-06T21:27:03.421Z,2.80
2022-12-06T21:29:32.265Z,3.10
2022-12-06T21:32:01.651Z,2.90
2022-12-06T21:34:29.789Z,2.80
2022-12-06T21:36:57.715Z,2.50
2022-12-06T21:39:25.927Z,3.20
2022-12-06T21:41:54.217Z,2.90
2022-12-06T21:44:23.673Z,3.50
2022-12-06T21:46:54.063Z,3.50
2022-12-06T21:49:24.035Z,3.00
2022-12-06T21:52:00.214Z,3.20
2022-12-06T21:54:29.986Z,2.70
2022-12-06T21:56:57.948Z,3.40
2022-12-06T21:59:26.245Z,3.10
2022-12-06T22:01:54.416Z,2.70
2022-12-06T22:04:21.631Z,3.40
2022-12-06T22:06:49.026Z,4.10
2022-12-06T22:09:16.870Z,2.70
2022-12-06T22:11:47.624Z,3.00
2022-12-06T22:14:16.078Z,2.90
2022-12-06T22:16:51.593Z,3.50
2022-12-06T22:19:21.104Z,3.10
2022-12-06T22:21:48.522Z,2.70
2022-12-06T22:24:16.279Z,3.80
2022-12-06T22:26:44.028Z,3.40
2022-12-06T22:29:13.453Z,3.00
2022-12-06T22:31:43.829Z,3.00
2022-12-06T22:34:12.122Z,3.90
2022-12-06T22:36:39.543Z,3.10
2022-12-06T22:39:07.588Z,3.10
2022-12-06T22:41:35.327Z,3.60
2022-12-06T22:44:06.907Z,3.30
2022-12-06T22:46:36.746Z,3.30
2022-12-06T22:49:06.539Z,3.30
2022-12-06T22:51:40.187Z,3.20
2022-12-06T22:54:11.770Z,3.70
2022-12-06T22:56:46.772Z,3.50
2022-12-06T22:59:20.772Z,4.40
2022-12-06T23:01:48.506Z,3.60
2022-12-06T23:04:16.637Z,3.80
2022-12-06T23:06:45.526Z,4.10
2022-12-06T23:09:16.191Z,3.70
2022-12-06T23:11:43.974Z,4.60
2022-12-06T23:14:11.834Z,3.80
2022-12-06T23:16:41.417Z,4.20
2022-12-06T23:32:37.783Z,3.30
2022-12-06T23:35:06.920Z,3.80
2022-12-06T23:37:35.826Z,3.50
2022-12-06T23:40:06.046Z,4.00
2022-12-06T23:42:35.261Z,3.30
2022-12-06T23:45:09.764Z,3.20
2022-12-06T23:47:43.469Z,3.50
2022-12-06T23:50:13.697Z,4.10
2022-12-06T23:52:42.228Z,3.60
2022-12-06T23:55:11.123Z,3.60
2022-12-06T23:57:39.957Z,3.80
